sensor_id;sensor_type;location;lat;lon;timestamp;pressure;altitude;pressure_sealevel;temperature;humidity
77823;BME280;67013;49.730;17.292;2023-04-25T00:00:11;97421.66;;;12.12;72.22
77823;BME280;67013;49.730;17.292;2023-04-25T00:02:41;97425.54;;;12.15;72.36
77823;BME280;67013;49.730;17.292;2023-04-25T00:05:11;97422.45;;;12.17;72.58
77823;BME280;67013;49.730;17.292;2023-04-25T00:07:43;97424.38;;;12.18;72.75
77823;BME280;67013;49.730;17.292;2023-04-25T00:10:12;97426.49;;;12.18;72.76
77823;BME280;67013;49.730;17.292;2023-04-25T00:12:42;97427.70;;;12.16;72.34
77823;BME280;67013;49.730;17.292;2023-04-25T00:15:12;97428.09;;;12.16;72.21
77823;BME280;67013;49.730;17.292;2023-04-25T00:17:42;97428.91;;;12.16;71.67
77823;BME280;67013;49.730;17.292;2023-04-25T00:20:13;97427.55;;;12.16;71.19
77823;BME280;67013;49.730;17.292;2023-04-25T00:22:43;97427.08;;;12.16;70.87
77823;BME280;67013;49.730;17.292;2023-04-25T00:25:13;97426.03;;;12.14;70.67
77823;BME280;67013;49.730;17.292;2023-04-25T00:27:42;97429.70;;;12.12;70.59
77823;BME280;67013;49.730;17.292;2023-04-25T00:30:14;97427.77;;;12.10;70.62
77823;BME280;67013;49.730;17.292;2023-04-25T00:32:43;97427.16;;;12.07;70.64
77823;BME280;67013;49.730;17.292;2023-04-25T00:35:14;97428.11;;;12.04;70.76
77823;BME280;67013;49.730;17.292;2023-04-25T00:37:43;97428.98;;;12.01;70.41
77823;BME280;67013;49.730;17.292;2023-04-25T00:40:13;97431.11;;;11.98;70.15
77823;BME280;67013;49.730;17.292;2023-04-25T00:42:42;97430.04;;;11.97;70.08
77823;BME280;67013;49.730;17.292;2023-04-25T00:45:14;97430.65;;;11.94;69.85
77823;BME280;67013;49.730;17.292;2023-04-25T00:47:44;97423.77;;;11.91;69.98
77823;BME280;67013;49.730;17.292;2023-04-25T00:50:13;97422.55;;;11.87;69.43
77823;BME280;67013;49.730;17.292;2023-04-25T00:52:45;97418.54;;;11.84;69.68
77823;BME280;67013;49.730;17.292;2023-04-25T00:55:14;97418.84;;;11.81;69.71
77823;BME280;67013;49.730;17.292;2023-04-25T00:57:46;97415.34;;;11.77;69.59
77823;BME280;67013;49.730;17.292;2023-04-25T01:00:17;97416.55;;;11.73;69.45
77823;BME280;67013;49.730;17.292;2023-04-25T01:02:47;97415.27;;;11.68;69.82
77823;BME280;67013;49.730;17.292;2023-04-25T01:05:17;97413.73;;;11.64;70.41
77823;BME280;67013;49.730;17.292;2023-04-25T01:07:47;97411.45;;;11.62;70.58
77823;BME280;67013;49.730;17.292;2023-04-25T01:10:17;97410.55;;;11.61;70.38
77823;BME280;67013;49.730;17.292;2023-04-25T01:12:47;97411.64;;;11.60;70.60
77823;BME280;67013;49.730;17.292;2023-04-25T01:15:17;97416.86;;;11.58;70.97
77823;BME280;67013;49.730;17.292;2023-04-25T01:17:46;97417.18;;;11.57;70.87
77823;BME280;67013;49.730;17.292;2023-04-25T01:20:17;97414.88;;;11.56;70.80
77823;BME280;67013;49.730;17.292;2023-04-25T01:22:47;97412.32;;;11.51;70.90
77823;BME280;67013;49.730;17.292;2023-04-25T01:25:17;97410.34;;;11.46;71.22
77823;BME280;67013;49.730;17.292;2023-04-25T01:27:47;97411.08;;;11.42;71.37
77823;BME280;67013;49.730;17.292;2023-04-25T01:30:17;97413.89;;;11.38;71.46
77823;BME280;67013;49.730;17.292;2023-04-25T01:32:46;97415.48;;;11.36;71.73
77823;BME280;67013;49.730;17.292;2023-04-25T01:35:16;97417.65;;;11.35;71.91
77823;BME280;67013;49.730;17.292;2023-04-25T01:37:46;97421.61;;;11.34;71.74
77823;BME280;67013;49.730;17.292;2023-04-25T01:40:15;97419.75;;;11.29;71.59
77823;BME280;67013;49.730;17.292;2023-04-25T01:42:47;97422.59;;;11.24;71.59
77823;BME280;67013;49.730;17.292;2023-04-25T01:45:16;97423.52;;;11.22;72.30
77823;BME280;67013;49.730;17.292;2023-04-25T01:47:46;97423.64;;;11.21;72.19
77823;BME280;67013;49.730;17.292;2023-04-25T01:50:18;97421.58;;;11.19;71.98
77823;BME280;67013;49.730;17.292;2023-04-25T01:52:48;97425.23;;;11.18;72.19
77823;BME280;67013;49.730;17.292;2023-04-25T01:55:18;97424.54;;;11.18;71.85
77823;BME280;67013;49.730;17.292;2023-04-25T01:57:47;97430.27;;;11.18;71.85
77823;BME280;67013;49.730;17.292;2023-04-25T02:00:17;97428.58;;;11.18;72.14
77823;BME280;67013;49.730;17.292;2023-04-25T02:02:47;97430.66;;;11.18;72.36
77823;BME280;67013;49.730;17.292;2023-04-25T02:05:18;97430.23;;;11.17;71.87
77823;BME280;67013;49.730;17.292;2023-04-25T02:07:48;97430.25;;;11.15;72.04
77823;BME280;67013;49.730;17.292;2023-04-25T02:10:18;97430.52;;;11.12;71.94
77823;BME280;67013;49.730;17.292;2023-04-25T02:12:47;97428.32;;;11.10;71.90
77823;BME280;67013;49.730;17.292;2023-04-25T02:15:17;97428.20;;;11.09;72.00
77823;BME280;67013;49.730;17.292;2023-04-25T02:17:46;97427.73;;;11.08;71.54
77823;BME280;67013;49.730;17.292;2023-04-25T02:20:16;97423.78;;;11.08;71.60
77823;BME280;67013;49.730;17.292;2023-04-25T02:22:46;97424.63;;;11.08;71.59
77823;BME280;67013;49.730;17.292;2023-04-25T02:25:16;97425.19;;;11.08;71.54
77823;BME280;67013;49.730;17.292;2023-04-25T02:27:45;97421.75;;;11.07;71.62
77823;BME280;67013;49.730;17.292;2023-04-25T02:30:15;97421.85;;;11.06;71.59
77823;BME280;67013;49.730;17.292;2023-04-25T02:32:44;97419.69;;;11.05;71.46
77823;BME280;67013;49.730;17.292;2023-04-25T02:35:14;97423.55;;;11.03;70.74
77823;BME280;67013;49.730;17.292;2023-04-25T02:37:43;97426.16;;;11.01;70.86
77823;BME280;67013;49.730;17.292;2023-04-25T02:40:13;97424.99;;;10.98;70.59
77823;BME280;67013;49.730;17.292;2023-04-25T02:42:43;97421.37;;;10.96;70.82
77823;BME280;67013;49.730;17.292;2023-04-25T02:45:13;97419.74;;;10.95;70.99
77823;BME280;67013;49.730;17.292;2023-04-25T02:47:43;97425.25;;;10.94;71.08
77823;BME280;67013;49.730;17.292;2023-04-25T02:50:12;97421.58;;;10.92;70.54
77823;BME280;67013;49.730;17.292;2023-04-25T02:52:42;97427.04;;;10.89;70.54
77823;BME280;67013;49.730;17.292;2023-04-25T02:55:11;97429.98;;;10.87;71.10
77823;BME280;67013;49.730;17.292;2023-04-25T02:57:41;97427.20;;;10.85;70.95
77823;BME280;67013;49.730;17.292;2023-04-25T03:00:13;97422.27;;;10.82;70.70
77823;BME280;67013;49.730;17.292;2023-04-25T03:02:43;97424.00;;;10.79;70.61
77823;BME280;67013;49.730;17.292;2023-04-25T03:05:13;97426.33;;;10.78;70.95
77823;BME280;67013;49.730;17.292;2023-04-25T03:07:42;97423.23;;;10.77;70.86
77823;BME280;67013;49.730;17.292;2023-04-25T03:10:12;97420.23;;;10.78;70.62
77823;BME280;67013;49.730;17.292;2023-04-25T03:12:42;97420.09;;;10.78;70.84
77823;BME280;67013;49.730;17.292;2023-04-25T03:15:12;97416.69;;;10.77;71.01
77823;BME280;67013;49.730;17.292;2023-04-25T03:17:41;97418.80;;;10.76;71.24
77823;BME280;67013;49.730;17.292;2023-04-25T03:20:12;97420.47;;;10.75;71.10
77823;BME280;67013;49.730;17.292;2023-04-25T03:22:42;97421.39;;;10.73;70.94
77823;BME280;67013;49.730;17.292;2023-04-25T03:25:12;97421.52;;;10.71;70.74
77823;BME280;67013;49.730;17.292;2023-04-25T03:27:42;97420.73;;;10.68;70.82
77823;BME280;67013;49.730;17.292;2023-04-25T03:30:12;97421.92;;;10.67;71.15
77823;BME280;67013;49.730;17.292;2023-04-25T03:32:41;97424.34;;;10.65;71.28
77823;BME280;67013;49.730;17.292;2023-04-25T03:35:11;97425.77;;;10.63;71.18
77823;BME280;67013;49.730;17.292;2023-04-25T03:37:40;97425.45;;;10.60;71.37
77823;BME280;67013;49.730;17.292;2023-04-25T03:40:13;97431.40;;;10.57;71.42
77823;BME280;67013;49.730;17.292;2023-04-25T03:42:43;97431.20;;;10.56;71.50
77823;BME280;67013;49.730;17.292;2023-04-25T03:45:12;97430.77;;;10.54;71.31
77823;BME280;67013;49.730;17.292;2023-04-25T03:47:42;97432.58;;;10.52;71.33
77823;BME280;67013;49.730;17.292;2023-04-25T03:50:11;97432.08;;;10.50;71.47
77823;BME280;67013;49.730;17.292;2023-04-25T03:52:41;97431.39;;;10.48;71.52
77823;BME280;67013;49.730;17.292;2023-04-25T03:55:11;97431.82;;;10.47;71.66
77823;BME280;67013;49.730;17.292;2023-04-25T03:57:40;97430.14;;;10.44;71.66
77823;BME280;67013;49.730;17.292;2023-04-25T04:00:12;97429.63;;;10.42;72.09
77823;BME280;67013;49.730;17.292;2023-04-25T04:02:40;97429.58;;;10.41;72.38
77823;BME280;67013;49.730;17.292;2023-04-25T04:05:10;97427.83;;;10.37;72.39
77823;BME280;67013;49.730;17.292;2023-04-25T04:07:39;97435.31;;;10.35;72.29
77823;BME280;67013;49.730;17.292;2023-04-25T04:10:11;97434.81;;;10.33;72.29
77823;BME280;67013;49.730;17.292;2023-04-25T04:12:41;97440.73;;;10.33;72.53
77823;BME280;67013;49.730;17.292;2023-04-25T04:15:11;97441.30;;;10.34;72.47
77823;BME280;67013;49.730;17.292;2023-04-25T04:17:41;97443.12;;;10.37;72.36
77823;BME280;67013;49.730;17.292;2023-04-25T04:20:11;97444.99;;;10.41;72.33
77823;BME280;67013;49.730;17.292;2023-04-25T04:22:40;97448.91;;;10.44;72.28
77823;BME280;67013;49.730;17.292;2023-04-25T04:25:10;97454.42;;;10.45;72.31
77823;BME280;67013;49.730;17.292;2023-04-25T04:27:40;97458.06;;;10.47;72.77
77823;BME280;67013;49.730;17.292;2023-04-25T04:30:13;97455.98;;;10.47;72.61
77823;BME280;67013;49.730;17.292;2023-04-25T04:32:42;97456.83;;;10.47;72.75
77823;BME280;67013;49.730;17.292;2023-04-25T04:35:12;97460.77;;;10.46;72.50
77823;BME280;67013;49.730;17.292;2023-04-25T04:37:42;97459.23;;;10.46;72.42
77823;BME280;67013;49.730;17.292;2023-04-25T04:40:12;97455.88;;;10.48;72.56
77823;BME280;67013;49.730;17.292;2023-04-25T04:42:44;97451.77;;;10.49;72.47
77823;BME280;67013;49.730;17.292;2023-04-25T04:45:14;97462.44;;;10.50;72.33
77823;BME280;67013;49.730;17.292;2023-04-25T04:47:44;97457.23;;;10.52;72.58
77823;BME280;67013;49.730;17.292;2023-04-25T04:50:14;97458.73;;;10.55;72.66
77823;BME280;67013;49.730;17.292;2023-04-25T04:52:44;97455.95;;;10.57;72.61
77823;BME280;67013;49.730;17.292;2023-04-25T04:55:13;97460.86;;;10.58;72.64
77823;BME280;67013;49.730;17.292;2023-04-25T04:57:43;97464.42;;;10.59;72.49
77823;BME280;67013;49.730;17.292;2023-04-25T05:00:14;97463.38;;;10.62;72.45
77823;BME280;67013;49.730;17.292;2023-04-25T05:02:44;97462.03;;;10.65;72.27
77823;BME280;67013;49.730;17.292;2023-04-25T05:05:13;97462.58;;;10.69;72.39
77823;BME280;67013;49.730;17.292;2023-04-25T05:07:43;97463.48;;;10.72;72.50
77823;BME280;67013;49.730;17.292;2023-04-25T05:10:12;97461.69;;;10.75;72.37
77823;BME280;67013;49.730;17.292;2023-04-25T05:12:41;97463.84;;;10.78;72.16
77823;BME280;67013;49.730;17.292;2023-04-25T05:15:12;97464.61;;;10.81;72.16
77823;BME280;67013;49.730;17.292;2023-04-25T05:17:41;97465.64;;;10.85;72.40
77823;BME280;67013;49.730;17.292;2023-04-25T05:20:11;97461.17;;;10.88;72.41
77823;BME280;67013;49.730;17.292;2023-04-25T05:22:42;97465.04;;;10.94;72.35
77823;BME280;67013;49.730;17.292;2023-04-25T05:25:11;97465.45;;;11.01;72.25
77823;BME280;67013;49.730;17.292;2023-04-25T05:27:41;97467.41;;;11.08;72.27
77823;BME280;67013;49.730;17.292;2023-04-25T05:30:11;97465.03;;;11.15;72.09
77823;BME280;67013;49.730;17.292;2023-04-25T05:32:41;97466.27;;;11.21;71.57
77823;BME280;67013;49.730;17.292;2023-04-25T05:35:10;97467.00;;;11.26;71.43
77823;BME280;67013;49.730;17.292;2023-04-25T05:37:40;97470.11;;;11.30;71.52
77823;BME280;67013;49.730;17.292;2023-04-25T05:40:11;97471.35;;;11.34;71.18
77823;BME280;67013;49.730;17.292;2023-04-25T05:42:40;97470.77;;;11.37;70.90
77823;BME280;67013;49.730;17.292;2023-04-25T05:45:12;97472.65;;;11.39;70.56
77823;BME280;67013;49.730;17.292;2023-04-25T05:47:42;97472.21;;;11.40;70.29
77823;BME280;67013;49.730;17.292;2023-04-25T05:50:12;97474.36;;;11.42;70.32
77823;BME280;67013;49.730;17.292;2023-04-25T05:52:41;97472.71;;;11.44;70.05
77823;BME280;67013;49.730;17.292;2023-04-25T05:55:11;97475.58;;;11.47;70.13
77823;BME280;67013;49.730;17.292;2023-04-25T05:57:41;97474.98;;;11.49;69.77
77823;BME280;67013;49.730;17.292;2023-04-25T06:00:15;97473.70;;;11.52;69.57
77823;BME280;67013;49.730;17.292;2023-04-25T06:02:45;97479.56;;;11.55;69.11
77823;BME280;67013;49.730;17.292;2023-04-25T06:05:14;97474.08;;;11.57;69.02
77823;BME280;67013;49.730;17.292;2023-04-25T06:07:44;97471.70;;;11.60;69.08
77823;BME280;67013;49.730;17.292;2023-04-25T06:10:13;97468.66;;;11.63;68.70
77823;BME280;67013;49.730;17.292;2023-04-25T06:12:43;97469.20;;;11.67;68.69
77823;BME280;67013;49.730;17.292;2023-04-25T06:15:12;97467.85;;;11.70;68.49
77823;BME280;67013;49.730;17.292;2023-04-25T06:17:42;97463.89;;;11.75;68.59
77823;BME280;67013;49.730;17.292;2023-04-25T06:20:12;97456.84;;;11.82;68.43
77823;BME280;67013;49.730;17.292;2023-04-25T06:22:42;97461.08;;;11.91;68.23
77823;BME280;67013;49.730;17.292;2023-04-25T06:25:11;97466.06;;;12.01;68.11
77823;BME280;67013;49.730;17.292;2023-04-25T06:27:41;97466.11;;;12.12;68.26
77823;BME280;67013;49.730;17.292;2023-04-25T06:30:12;97465.98;;;12.24;68.27
77823;BME280;67013;49.730;17.292;2023-04-25T06:32:41;97466.92;;;12.36;67.71
77823;BME280;67013;49.730;17.292;2023-04-25T06:35:11;97465.41;;;12.48;67.36
77823;BME280;67013;49.730;17.292;2023-04-25T06:37:41;97461.50;;;12.60;67.04
77823;BME280;67013;49.730;17.292;2023-04-25T06:40:11;97459.02;;;12.73;66.85
77823;BME280;67013;49.730;17.292;2023-04-25T06:42:40;97460.84;;;12.89;66.96
77823;BME280;67013;49.730;17.292;2023-04-25T06:45:11;97456.97;;;13.03;66.40
77823;BME280;67013;49.730;17.292;2023-04-25T06:47:41;97451.73;;;13.19;66.09
77823;BME280;67013;49.730;17.292;2023-04-25T06:50:11;97452.90;;;13.36;65.41
77823;BME280;67013;49.730;17.292;2023-04-25T06:52:40;97449.82;;;13.53;65.27
77823;BME280;67013;49.730;17.292;2023-04-25T06:55:10;97450.17;;;13.77;64.96
77823;BME280;67013;49.730;17.292;2023-04-25T06:57:40;97450.51;;;14.03;64.67
77823;BME280;67013;49.730;17.292;2023-04-25T07:00:11;97445.92;;;14.37;63.83
77823;BME280;67013;49.730;17.292;2023-04-25T07:02:41;97442.98;;;14.76;62.91
77823;BME280;67013;49.730;17.292;2023-04-25T07:05:11;97440.91;;;15.12;62.87
77823;BME280;67013;49.730;17.292;2023-04-25T07:07:41;97440.36;;;15.44;62.24
77823;BME280;67013;49.730;17.292;2023-04-25T07:10:10;97443.61;;;15.76;61.40
77823;BME280;67013;49.730;17.292;2023-04-25T07:12:40;97446.98;;;16.06;60.44
77823;BME280;67013;49.730;17.292;2023-04-25T07:15:10;97447.80;;;16.32;59.56
77823;BME280;67013;49.730;17.292;2023-04-25T07:17:40;97446.36;;;16.55;58.87
77823;BME280;67013;49.730;17.292;2023-04-25T07:20:11;97446.55;;;16.74;58.11
77823;BME280;67013;49.730;17.292;2023-04-25T07:22:40;97445.46;;;16.93;57.39
77823;BME280;67013;49.730;17.292;2023-04-25T07:25:10;97446.09;;;17.14;57.30
77823;BME280;67013;49.730;17.292;2023-04-25T07:27:40;97441.64;;;17.34;56.77
77823;BME280;67013;49.730;17.292;2023-04-25T07:30:12;97439.20;;;17.43;55.78
77823;BME280;67013;49.730;17.292;2023-04-25T07:32:41;97448.04;;;17.54;55.53
77823;BME280;67013;49.730;17.292;2023-04-25T07:35:11;97452.38;;;17.64;55.27
77823;BME280;67013;49.730;17.292;2023-04-25T07:37:40;97455.52;;;17.69;54.68
77823;BME280;67013;49.730;17.292;2023-04-25T07:40:11;97446.91;;;17.83;53.93
77823;BME280;67013;49.730;17.292;2023-04-25T07:42:40;97446.00;;;17.99;54.16
77823;BME280;67013;49.730;17.292;2023-04-25T07:45:11;97450.69;;;18.14;53.64
77823;BME280;67013;49.730;17.292;2023-04-25T07:47:40;97449.77;;;18.36;53.63
77823;BME280;67013;49.730;17.292;2023-04-25T07:50:11;97449.34;;;18.62;53.17
77823;BME280;67013;49.730;17.292;2023-04-25T07:52:40;97446.73;;;18.83;52.05
77823;BME280;67013;49.730;17.292;2023-04-25T07:55:10;97451.72;;;19.01;52.17
77823;BME280;67013;49.730;17.292;2023-04-25T07:57:40;97452.55;;;19.19;50.89
77823;BME280;67013;49.730;17.292;2023-04-25T08:00:11;97450.83;;;19.34;50.42
77823;BME280;67013;49.730;17.292;2023-04-25T08:02:41;97448.22;;;19.44;48.83
77823;BME280;67013;49.730;17.292;2023-04-25T08:05:10;97449.41;;;19.49;49.21
77823;BME280;67013;49.730;17.292;2023-04-25T08:07:42;97445.08;;;19.51;49.07
77823;BME280;67013;49.730;17.292;2023-04-25T08:10:12;97444.52;;;19.53;48.93
77823;BME280;67013;49.730;17.292;2023-04-25T08:12:41;97445.08;;;19.55;48.49
77823;BME280;67013;49.730;17.292;2023-04-25T08:15:11;97439.46;;;19.52;48.05
77823;BME280;67013;49.730;17.292;2023-04-25T08:17:42;97439.76;;;19.57;47.89
77823;BME280;67013;49.730;17.292;2023-04-25T08:20:13;97439.05;;;19.66;48.37
77823;BME280;67013;49.730;17.292;2023-04-25T08:22:42;97439.95;;;19.72;47.80
77823;BME280;67013;49.730;17.292;2023-04-25T08:25:12;97442.27;;;19.83;47.62
77823;BME280;67013;49.730;17.292;2023-04-25T08:27:42;97442.78;;;19.93;46.65
77823;BME280;67013;49.730;17.292;2023-04-25T08:30:13;97445.88;;;20.02;45.94
77823;BME280;67013;49.730;17.292;2023-04-25T08:32:42;97447.17;;;20.04;46.38
77823;BME280;67013;49.730;17.292;2023-04-25T08:35:12;97444.95;;;20.08;46.45
77823;BME280;67013;49.730;17.292;2023-04-25T08:37:41;97447.37;;;20.22;46.45
77823;BME280;67013;49.730;17.292;2023-04-25T08:40:13;97447.02;;;20.43;45.55
77823;BME280;67013;49.730;17.292;2023-04-25T08:42:43;97445.27;;;20.61;46.14
77823;BME280;67013;49.730;17.292;2023-04-25T08:45:13;97444.04;;;20.81;45.14
77823;BME280;67013;49.730;17.292;2023-04-25T08:47:44;97448.18;;;21.02;45.13
77823;BME280;67013;49.730;17.292;2023-04-25T08:50:14;97448.58;;;21.25;44.18
77823;BME280;67013;49.730;17.292;2023-04-25T08:52:45;97446.08;;;21.43;43.76
77823;BME280;67013;49.730;17.292;2023-04-25T08:55:16;97443.31;;;21.57;42.54
77823;BME280;67013;49.730;17.292;2023-04-25T08:57:46;97442.30;;;21.66;42.25
77823;BME280;67013;49.730;17.292;2023-04-25T09:00:17;97435.34;;;21.78;41.50
77823;BME280;67013;49.730;17.292;2023-04-25T09:02:48;97437.42;;;21.79;40.27
77823;BME280;67013;49.730;17.292;2023-04-25T09:05:18;97439.19;;;21.76;39.56
77823;BME280;67013;49.730;17.292;2023-04-25T09:07:47;97439.80;;;21.69;38.92
77823;BME280;67013;49.730;17.292;2023-04-25T09:10:17;97439.23;;;21.67;39.28
77823;BME280;67013;49.730;17.292;2023-04-25T09:13:03;97443.23;;;21.67;40.58
77823;BME280;67013;49.730;17.292;2023-04-25T09:15:33;97440.70;;;21.66;40.38
77823;BME280;67013;49.730;17.292;2023-04-25T09:18:23;97441.80;;;21.57;39.78
77823;BME280;67013;49.730;17.292;2023-04-25T09:20:55;97443.96;;;21.47;40.74
77823;BME280;67013;49.730;17.292;2023-04-25T09:23:25;97448.97;;;21.40;41.33
77823;BME280;67013;49.730;17.292;2023-04-25T09:25:55;97447.80;;;21.33;42.00
77823;BME280;67013;49.730;17.292;2023-04-25T09:28:27;97448.83;;;21.27;41.67
77823;BME280;67013;49.730;17.292;2023-04-25T09:30:58;97445.97;;;21.26;41.87
77823;BME280;67013;49.730;17.292;2023-04-25T09:33:31;97447.27;;;21.27;41.22
77823;BME280;67013;49.730;17.292;2023-04-25T09:36:06;97447.20;;;21.26;41.57
77823;BME280;67013;49.730;17.292;2023-04-25T09:38:44;97441.48;;;21.25;41.56
77823;BME280;67013;49.730;17.292;2023-04-25T09:41:13;97442.39;;;21.29;40.89
77823;BME280;67013;49.730;17.292;2023-04-25T09:43:51;97444.20;;;21.31;40.48
77823;BME280;67013;49.730;17.292;2023-04-25T09:46:20;97444.80;;;21.32;40.47
77823;BME280;67013;49.730;17.292;2023-04-25T09:48:53;97446.11;;;21.38;40.74
77823;BME280;67013;49.730;17.292;2023-04-25T09:51:27;97434.79;;;21.47;41.25
77823;BME280;67013;49.730;17.292;2023-04-25T09:53:56;97438.34;;;21.47;40.36
77823;BME280;67013;49.730;17.292;2023-04-25T09:56:28;97438.42;;;21.48;39.99
77823;BME280;67013;49.730;17.292;2023-04-25T09:59:00;97438.63;;;21.48;39.60
77823;BME280;67013;49.730;17.292;2023-04-25T10:01:31;97428.33;;;21.56;38.94
77823;BME280;67013;49.730;17.292;2023-04-25T10:04:02;97426.12;;;21.72;38.62
77823;BME280;67013;49.730;17.292;2023-04-25T10:06:35;97419.41;;;21.87;37.70
77823;BME280;67013;49.730;17.292;2023-04-25T10:09:07;97425.73;;;22.01;38.14
77823;BME280;67013;49.730;17.292;2023-04-25T10:11:38;97426.16;;;22.17;37.25
77823;BME280;67013;49.730;17.292;2023-04-25T10:14:07;97427.48;;;22.26;37.18
77823;BME280;67013;49.730;17.292;2023-04-25T10:16:38;97424.86;;;22.34;37.10
77823;BME280;67013;49.730;17.292;2023-04-25T10:19:09;97422.08;;;22.43;34.99
77823;BME280;67013;49.730;17.292;2023-04-25T10:21:44;97422.73;;;22.46;35.18
77823;BME280;67013;49.730;17.292;2023-04-25T10:24:15;97422.00;;;22.55;35.70
77823;BME280;67013;49.730;17.292;2023-04-25T10:26:45;97420.10;;;22.71;35.75
77823;BME280;67013;49.730;17.292;2023-04-25T10:29:23;97407.09;;;22.91;36.46
77823;BME280;67013;49.730;17.292;2023-04-25T10:31:53;97404.41;;;22.96;35.46
77823;BME280;67013;49.730;17.292;2023-04-25T10:34:39;97406.71;;;22.87;35.22
77823;BME280;67013;49.730;17.292;2023-04-25T10:37:11;97405.70;;;22.71;35.39
77823;BME280;67013;49.730;17.292;2023-04-25T10:39:42;97406.17;;;22.55;35.82
77823;BME280;67013;49.730;17.292;2023-04-25T10:42:12;97404.48;;;22.36;35.97
77823;BME280;67013;49.730;17.292;2023-04-25T10:45:03;97402.88;;;22.17;35.62
77823;BME280;67013;49.730;17.292;2023-04-25T10:47:46;97404.70;;;22.03;37.11
77823;BME280;67013;49.730;17.292;2023-04-25T10:50:17;97401.72;;;22.07;38.26
77823;BME280;67013;49.730;17.292;2023-04-25T10:52:46;97391.52;;;22.09;37.58
77823;BME280;67013;49.730;17.292;2023-04-25T10:55:16;97395.55;;;22.06;37.21
77823;BME280;67013;49.730;17.292;2023-04-25T10:57:46;97395.63;;;22.02;37.44
77823;BME280;67013;49.730;17.292;2023-04-25T11:00:19;97392.28;;;21.91;36.83
77823;BME280;67013;49.730;17.292;2023-04-25T11:02:55;97394.91;;;21.79;37.68
77823;BME280;67013;49.730;17.292;2023-04-25T11:05:31;97387.86;;;21.75;37.64
77823;BME280;67013;49.730;17.292;2023-04-25T11:08:02;97382.71;;;21.76;37.66
77823;BME280;67013;49.730;17.292;2023-04-25T11:10:32;97381.23;;;21.76;36.66
77823;BME280;67013;49.730;17.292;2023-04-25T11:13:01;97379.52;;;21.74;37.02
77823;BME280;67013;49.730;17.292;2023-04-25T11:15:32;97380.54;;;21.72;36.11
77823;BME280;67013;49.730;17.292;2023-04-25T11:18:01;97379.13;;;21.64;35.74
77823;BME280;67013;49.730;17.292;2023-04-25T11:20:31;97377.26;;;21.53;34.92
77823;BME280;67013;49.730;17.292;2023-04-25T11:23:00;97376.00;;;21.42;35.96
77823;BME280;67013;49.730;17.292;2023-04-25T11:25:30;97374.61;;;21.29;34.93
77823;BME280;67013;49.730;17.292;2023-04-25T11:28:00;97375.93;;;21.21;35.33
77823;BME280;67013;49.730;17.292;2023-04-25T11:30:31;97373.70;;;21.12;34.77
77823;BME280;67013;49.730;17.292;2023-04-25T11:33:00;97370.12;;;21.05;35.50
77823;BME280;67013;49.730;17.292;2023-04-25T11:35:32;97370.44;;;21.03;35.61
77823;BME280;67013;49.730;17.292;2023-04-25T11:38:02;97373.08;;;20.99;35.15
77823;BME280;67013;49.730;17.292;2023-04-25T11:40:32;97373.73;;;20.93;35.23
77823;BME280;67013;49.730;17.292;2023-04-25T11:43:02;97375.06;;;20.88;36.68
77823;BME280;67013;49.730;17.292;2023-04-25T11:45:32;97375.54;;;20.85;36.25
77823;BME280;67013;49.730;17.292;2023-04-25T11:48:02;97373.54;;;20.84;36.53
77823;BME280;67013;49.730;17.292;2023-04-25T11:50:32;97372.33;;;20.86;36.48
77823;BME280;67013;49.730;17.292;2023-04-25T11:53:01;97367.43;;;20.92;36.50
77823;BME280;67013;49.730;17.292;2023-04-25T11:55:31;97366.68;;;20.99;36.79
77823;BME280;67013;49.730;17.292;2023-04-25T11:58:02;97367.42;;;21.02;36.83
77823;BME280;67013;49.730;17.292;2023-04-25T12:00:32;97362.11;;;21.03;36.59
77823;BME280;67013;49.730;17.292;2023-04-25T12:03:02;97370.08;;;21.02;36.34
77823;BME280;67013;49.730;17.292;2023-04-25T12:05:33;97364.67;;;20.98;36.01
77823;BME280;67013;49.730;17.292;2023-04-25T12:08:15;97366.14;;;20.91;36.16
77823;BME280;67013;49.730;17.292;2023-04-25T12:10:46;97364.73;;;20.83;36.48
77823;BME280;67013;49.730;17.292;2023-04-25T12:13:24;97364.02;;;20.73;36.11
77823;BME280;67013;49.730;17.292;2023-04-25T12:15:55;97364.31;;;20.61;36.08
77823;BME280;67013;49.730;17.292;2023-04-25T12:18:25;97365.39;;;20.54;36.03
77823;BME280;67013;49.730;17.292;2023-04-25T12:20:56;97359.50;;;20.51;36.81
77823;BME280;67013;49.730;17.292;2023-04-25T12:23:30;97360.84;;;20.49;37.42
77823;BME280;67013;49.730;17.292;2023-04-25T12:26:00;97362.77;;;20.49;36.71
77823;BME280;67013;49.730;17.292;2023-04-25T12:28:33;97364.80;;;20.49;36.05
77823;BME280;67013;49.730;17.292;2023-04-25T12:31:04;97364.04;;;20.47;35.70
77823;BME280;67013;49.730;17.292;2023-04-25T12:33:33;97355.95;;;20.50;35.78
77823;BME280;67013;49.730;17.292;2023-04-25T12:36:05;97353.88;;;20.48;35.55
77823;BME280;67013;49.730;17.292;2023-04-25T12:38:39;97349.89;;;20.51;35.60
77823;BME280;67013;49.730;17.292;2023-04-25T12:41:09;97349.95;;;20.57;35.61
77823;BME280;67013;49.730;17.292;2023-04-25T12:43:39;97348.13;;;20.58;35.24
77823;BME280;67013;49.730;17.292;2023-04-25T12:46:08;97350.13;;;20.59;35.68
77823;BME280;67013;49.730;17.292;2023-04-25T12:48:38;97349.44;;;20.67;35.91
77823;BME280;67013;49.730;17.292;2023-04-25T12:51:07;97351.13;;;20.71;35.39
77823;BME280;67013;49.730;17.292;2023-04-25T12:53:37;97349.21;;;20.71;35.23
77823;BME280;67013;49.730;17.292;2023-04-25T12:56:09;97356.73;;;20.73;35.79
77823;BME280;67013;49.730;17.292;2023-04-25T12:58:39;97352.01;;;20.75;35.95
77823;BME280;67013;49.730;17.292;2023-04-25T13:01:08;97351.55;;;20.82;35.42
77823;BME280;67013;49.730;17.292;2023-04-25T13:03:38;97348.64;;;20.88;35.52
77823;BME280;67013;49.730;17.292;2023-04-25T13:06:08;97346.77;;;20.96;35.93